Decoded Metar for LFSL (BRIVE in FRANCE) (IATA:N/A) | Meteo·Mobile Aviation Weather
aviador You're here:

LFSL Decoded Metar

BRIVE in FRANCE
Report Time2018-08-21 15:30:00
UTC Time2018-08-21 16:06:12
Flight Rules vfr VFR
Wind310° at 08 kt
W.Decomp.*RWY 29: 7.5 kt HW 2.7 kt RCW
W.Rank310° ranks 5
Current wind is above 310° avg. (6.1)
Visibility9999 m
Phenomena:N/A
Clouds:N/A
Expected CloudBase > 6,800 ft AGL from Temp-Dew spread
CeilingNone
Temp31°C (ISA +18)
Dew Point14°C (35% RH)
Heat Index30.3°C
AAT29.3°C
QNH1016 hPa
Density Alt3,189 ft
Elevation1,016 ft
Report Wrong Elevation
Raw Report
METAR LFSL 211530Z AUTO 31008KT 260V330 CAVOK 31/14 Q1016 NOSIG=

Extra information for LFSL:More info

Metar Taf Metar & Taf Last 4 Metars F.Rules Stats Wind Profile Meteogram Temp Stats Airport Information Weather charts Add Link Nearby VenuesMetar ALERT Operation Metar Decoded Social comments